Main page
METAR-TAF:

METAR-TAF

Airports :

Ahvaz, Iran

Ahvaz International Airport

latitude: 31-20N, longitude: 048-40E, elevation: 20 m

Current weather observation

The report was made 22 minutes ago, at 17:00 UTC
Wind 8 kt from the West
Temperature 37°C
Humidity 25%
Pressure 1000 hPa
Visibility 10 km or more
no clouds below 1500 m and no cumulonimbus

METAR: OIAW 231700Z 28008KT CAVOK 37/14 Q1000

Time: 21:52 (17:22 UTC)

Forecast

The report was made 6 hours and 22 minutes ago, at 11:00 UTC
Forecast valid from 23 at 12 UTC to 24 at 18 UTC
Wind 10 kt from the West/Northwest
Visibility: 7000 m
Temporary
from 23 at 12 UTC to 23 at 16 UTC
Wind 17 kt from the Northwest
Visibility: 5000 m
sand
Becoming
from 24 at 10 UTC to 24 at 12 UTC
Wind 16 kt from the Northwest

TAF: OIAW 231100Z 2312/2418 30005MPS 7000 NSC TEMPO 2312/2316 32009MPS 5000 SA BECMG 2410/2412 32008MPS

Weather observations and forecasts of more than 4000 airports (METAR and TAF reports).

The available stations are represented by yellow and red dots on the map.

Hover mouse over dot to see the name of the station.

Then click to see weather observations and forecasts.

To change the map : click on the green buttons with a black cross to zoom in, on the green button with a dash to zoom out, or on the green arrows for adjacent maps.


METAR-TAF: